createdAt,value
2022-11-01T00:00:52.577Z,10.07
2022-11-01T00:01:47.916Z,10.11
2022-11-01T00:02:43.095Z,10.10
2022-11-01T00:03:38.373Z,10.07
2022-11-01T00:04:33.565Z,10.09
2022-11-01T00:05:28.904Z,10.11
2022-11-01T00:06:24.032Z,10.13
2022-11-01T00:07:19.421Z,10.15
2022-11-01T00:08:14.532Z,10.19
2022-11-01T00:09:09.752Z,10.24
2022-11-01T00:10:05.192Z,10.25
2022-11-01T00:11:00.284Z,10.26
2022-11-01T00:11:55.492Z,10.26
2022-11-01T00:12:50.773Z,10.25
2022-11-01T00:13:45.982Z,10.22
2022-11-01T00:14:41.189Z,10.23
2022-11-01T00:15:36.430Z,10.22
2022-11-01T00:16:31.673Z,10.23
2022-11-01T00:17:26.924Z,10.23
2022-11-01T00:18:22.182Z,10.23
2022-11-01T00:19:17.405Z,10.23
2022-11-01T00:20:12.668Z,10.21
2022-11-01T00:21:07.751Z,10.21
2022-11-01T00:22:02.842Z,10.27
2022-11-01T00:22:57.935Z,10.32
2022-11-01T00:23:53.025Z,10.31
2022-11-01T00:24:48.125Z,10.33
2022-11-01T00:25:43.228Z,10.29
2022-11-01T00:26:38.381Z,10.19
2022-11-01T00:27:33.367Z,10.14
2022-11-01T00:28:28.779Z,10.11
2022-11-01T00:29:23.599Z,10.06
2022-11-01T00:30:18.689Z,9.95
2022-11-01T00:31:14.014Z,9.86
2022-11-01T00:32:08.785Z,9.79
2022-11-01T00:33:03.815Z,9.77
2022-11-01T00:33:58.873Z,9.75
2022-11-01T00:34:53.860Z,9.72
2022-11-01T00:35:49.028Z,9.68
2022-11-01T00:36:43.923Z,9.69
2022-11-01T00:37:38.930Z,9.71
2022-11-01T00:38:33.934Z,9.77
2022-11-01T00:39:31.423Z,9.78
2022-11-01T00:40:25.048Z,9.79
2022-11-01T00:41:20.484Z,9.81
2022-11-01T00:42:15.669Z,9.81
2022-11-01T00:43:11.025Z,9.82
2022-11-01T00:44:06.188Z,9.83
2022-11-01T00:45:01.459Z,9.84
2022-11-01T00:45:56.888Z,9.84
2022-11-01T00:46:51.784Z,9.84
2022-11-01T00:47:47.061Z,9.87
2022-11-01T00:48:42.238Z,9.87
2022-11-01T00:49:37.398Z,9.85
2022-11-01T00:50:32.560Z,9.86
2022-11-01T00:51:27.992Z,9.86
2022-11-01T00:52:22.936Z,9.86
2022-11-01T00:53:18.082Z,9.92
2022-11-01T00:54:14.744Z,9.98
2022-11-01T00:55:09.840Z,10.01
2022-11-01T00:56:05.204Z,10.00
2022-11-01T00:57:00.477Z,10.00
2022-11-01T00:57:55.725Z,10.00
2022-11-01T00:58:50.855Z,9.98
2022-11-01T00:59:45.969Z,9.98
2022-11-01T01:00:40.903Z,9.98
2022-11-01T01:01:36.167Z,9.98
2022-11-01T01:02:31.183Z,9.97
2022-11-01T01:03:26.149Z,9.97
2022-11-01T01:04:21.242Z,9.97
2022-11-01T01:05:16.372Z,9.97
2022-11-01T01:06:11.434Z,9.96
2022-11-01T01:07:06.613Z,9.94
2022-11-01T01:08:01.636Z,9.92
2022-11-01T01:08:56.720Z,9.91
2022-11-01T01:09:53.231Z,9.90
2022-11-01T01:10:48.454Z,9.88
2022-11-01T01:11:43.259Z,9.86
2022-11-01T01:12:38.287Z,9.85
2022-11-01T01:13:33.341Z,9.86
2022-11-01T01:14:32.217Z,9.87
2022-11-01T01:15:23.386Z,9.86
2022-11-01T01:16:18.446Z,9.87
2022-11-01T01:17:13.510Z,9.91
2022-11-01T01:18:08.532Z,9.95
2022-11-01T01:19:03.648Z,9.96
2022-11-01T01:19:58.771Z,9.98
2022-11-01T01:20:54.317Z,10.01
2022-11-01T01:21:49.788Z,10.00
2022-11-01T01:22:44.983Z,9.97
2022-11-01T01:23:40.785Z,9.97
2022-11-01T01:24:36.014Z,9.99
2022-11-01T01:25:31.917Z,10.00
2022-11-01T01:26:27.044Z,9.97
2022-11-01T01:27:22.272Z,9.96
2022-11-01T01:28:18.080Z,9.98
2022-11-01T01:29:13.295Z,9.99
2022-11-01T01:30:08.753Z,9.95
2022-11-01T01:31:04.781Z,9.92
2022-11-01T01:31:59.964Z,9.88
2022-11-01T01:32:55.693Z,9.86
2022-11-01T01:33:50.992Z,9.85
2022-11-01T01:34:46.284Z,9.80
2022-11-01T01:35:42.008Z,9.78
2022-11-01T01:36:37.319Z,9.78
2022-11-01T01:37:33.077Z,9.76
2022-11-01T01:38:28.261Z,9.74
2022-11-01T01:39:23.557Z,9.74
2022-11-01T01:40:19.177Z,9.74
2022-11-01T01:41:14.358Z,9.74
2022-11-01T01:42:09.532Z,9.73
2022-11-01T01:43:06.215Z,9.72
2022-11-01T01:44:01.288Z,9.70
2022-11-01T01:44:56.999Z,9.71
2022-11-01T01:45:52.288Z,9.75
2022-11-01T01:46:47.640Z,9.73
2022-11-01T01:47:43.390Z,9.71
2022-11-01T01:48:38.477Z,9.70
2022-11-01T01:49:36.418Z,9.72
2022-11-01T01:50:29.668Z,9.71
2022-11-01T01:51:25.290Z,9.70
2022-11-01T01:52:20.452Z,9.69
2022-11-01T01:53:16.472Z,9.71
2022-11-01T01:54:11.484Z,9.70
2022-11-01T01:55:06.923Z,9.75
2022-11-01T01:56:02.825Z,9.78
2022-11-01T01:56:57.982Z,9.83
2022-11-01T01:57:53.422Z,9.84
2022-11-01T01:58:49.440Z,9.85
2022-11-01T01:59:44.596Z,9.88
2022-11-01T02:00:40.553Z,9.90
2022-11-01T02:01:35.841Z,9.92
2022-11-01T02:02:31.190Z,9.94
2022-11-01T02:03:27.000Z,9.97
2022-11-01T02:04:22.216Z,9.99
2022-11-01T02:05:18.018Z,9.98
2022-11-01T02:06:13.311Z,9.96
2022-11-01T02:07:08.529Z,9.95
2022-11-01T02:08:03.804Z,9.92
2022-11-01T02:08:58.816Z,9.89
2022-11-01T02:09:54.697Z,9.86
2022-11-01T02:10:49.874Z,9.84
2022-11-01T02:11:45.846Z,9.83
2022-11-01T02:12:40.890Z,9.82
2022-11-01T02:13:36.325Z,9.82
2022-11-01T02:14:32.101Z,9.82
2022-11-01T02:15:27.270Z,9.83
2022-11-01T02:16:22.545Z,9.85
2022-11-01T02:17:18.975Z,9.84
2022-11-01T02:18:14.169Z,9.82
2022-11-01T02:19:09.906Z,9.79
2022-11-01T02:20:05.048Z,9.79
2022-11-01T02:21:00.481Z,9.78
2022-11-01T02:21:56.217Z,9.76
2022-11-01T02:22:51.526Z,9.74
2022-11-01T02:23:46.719Z,9.73
2022-11-01T02:24:41.861Z,9.73
2022-11-01T02:25:37.134Z,9.75
2022-11-01T02:26:32.191Z,9.79
2022-11-01T02:27:27.241Z,9.81
2022-11-01T02:28:22.349Z,9.81
2022-11-01T02:29:17.386Z,9.79
2022-11-01T02:30:12.430Z,9.80
2022-11-01T02:31:07.449Z,9.80
2022-11-01T02:32:02.490Z,9.82
2022-11-01T02:32:57.661Z,9.81
2022-11-01T02:33:52.709Z,9.79
2022-11-01T02:34:48.137Z,9.79
2022-11-01T02:35:43.306Z,9.76
2022-11-01T02:36:38.566Z,9.75
2022-11-01T02:37:33.604Z,9.72
2022-11-01T02:38:28.616Z,9.71
2022-11-01T02:39:23.652Z,9.69
2022-11-01T02:40:18.845Z,9.68
2022-11-01T02:41:13.744Z,9.66
2022-11-01T02:42:08.764Z,9.63
2022-11-01T02:43:04.001Z,9.61
2022-11-01T02:43:58.906Z,9.63
2022-11-01T02:44:53.957Z,9.60
2022-11-01T02:45:48.991Z,9.62
2022-11-01T02:46:44.002Z,9.63
2022-11-01T02:47:39.025Z,9.64
2022-11-01T02:48:39.742Z,9.66
2022-11-01T02:49:34.902Z,9.66
2022-11-01T02:50:30.031Z,9.68
2022-11-01T02:51:25.285Z,9.69
2022-11-01T02:52:20.591Z,9.69
2022-11-01T02:53:15.861Z,9.71
2022-11-01T02:54:11.011Z,9.73
2022-11-01T02:55:06.320Z,9.74
2022-11-01T02:56:01.801Z,9.76
2022-11-01T02:56:56.662Z,9.82
2022-11-01T02:57:51.938Z,9.82
2022-11-01T02:58:47.112Z,9.79
2022-11-01T02:59:42.380Z,9.78
2022-11-01T03:00:37.648Z,9.76
2022-11-01T03:01:32.909Z,9.74
2022-11-01T03:02:28.234Z,9.69
2022-11-01T03:03:24.337Z,9.69
2022-11-01T03:04:19.513Z,9.66
2022-11-01T03:05:14.804Z,9.65
2022-11-01T03:06:09.985Z,9.64
2022-11-01T03:07:05.118Z,9.65
2022-11-01T03:08:00.669Z,9.67
2022-11-01T03:08:55.520Z,9.66
2022-11-01T03:09:50.794Z,9.70
2022-11-01T03:10:46.197Z,9.73
2022-11-01T03:11:41.533Z,9.76
2022-11-01T03:12:36.567Z,9.77
2022-11-01T03:13:31.710Z,9.78
2022-11-01T03:14:26.851Z,9.79
2022-11-01T03:15:22.283Z,9.79
2022-11-01T03:16:17.451Z,9.80
2022-11-01T03:17:12.599Z,9.80
2022-11-01T03:18:07.760Z,9.79
2022-11-01T03:19:03.204Z,9.79
2022-11-01T03:19:58.322Z,9.81
2022-11-01T03:20:53.503Z,9.81
2022-11-01T03:21:48.803Z,9.81
2022-11-01T03:22:44.029Z,9.80
2022-11-01T03:23:39.149Z,9.79
2022-11-01T03:24:34.428Z,9.80
2022-11-01T03:25:29.627Z,9.79
2022-11-01T03:26:24.766Z,9.79
2022-11-01T03:27:20.271Z,9.83
2022-11-01T03:28:15.296Z,9.84
2022-11-01T03:29:10.571Z,9.86
2022-11-01T03:30:05.752Z,9.87
2022-11-01T03:31:00.764Z,9.86
2022-11-01T03:31:55.791Z,9.85
2022-11-01T03:32:50.873Z,9.88
2022-11-01T03:33:45.886Z,9.89
2022-11-01T03:34:41.184Z,9.88
2022-11-01T03:35:36.355Z,9.87
2022-11-01T03:36:31.395Z,9.86
2022-11-01T03:37:30.657Z,9.82
2022-11-01T03:38:25.672Z,9.81
2022-11-01T03:39:20.813Z,9.83
2022-11-01T03:40:15.994Z,9.82
2022-11-01T03:41:11.298Z,9.79
2022-11-01T03:42:06.575Z,9.78
2022-11-01T03:43:01.974Z,9.78
2022-11-01T03:43:56.974Z,9.77
2022-11-01T03:44:52.133Z,9.76
2022-11-01T03:45:47.292Z,9.76
2022-11-01T03:46:42.571Z,9.76
2022-11-01T03:47:38.068Z,9.74
2022-11-01T03:48:33.104Z,9.72
2022-11-01T03:49:28.250Z,9.70
2022-11-01T03:50:23.417Z,9.68
2022-11-01T03:51:18.708Z,9.67
2022-11-01T03:52:14.113Z,9.68
2022-11-01T03:53:09.144Z,9.70
2022-11-01T03:54:04.486Z,9.73
2022-11-01T03:54:59.640Z,9.77
2022-11-01T03:55:54.791Z,9.80
2022-11-01T03:56:50.226Z,9.80
2022-11-01T03:57:45.211Z,9.79
2022-11-01T03:58:40.481Z,9.78
2022-11-01T03:59:35.906Z,9.77
2022-11-01T04:00:30.966Z,9.78
2022-11-01T04:01:26.251Z,9.78
2022-11-01T04:02:21.476Z,9.80
2022-11-01T04:03:16.486Z,9.81
2022-11-01T04:04:11.916Z,9.83
2022-11-01T04:05:07.064Z,9.88
2022-11-01T04:06:02.210Z,9.90
2022-11-01T04:06:57.386Z,9.91
2022-11-01T04:07:52.731Z,9.87
2022-11-01T04:08:47.875Z,9.85
2022-11-01T04:09:43.049Z,9.84
2022-11-01T04:10:38.342Z,9.83
2022-11-01T04:11:33.511Z,9.80
2022-11-01T04:12:28.811Z,9.80
2022-11-01T04:13:23.952Z,9.82
2022-11-01T04:14:19.187Z,9.85
2022-11-01T04:15:14.298Z,9.85
2022-11-01T04:16:09.730Z,9.84
2022-11-01T04:17:04.770Z,9.83
2022-11-01T04:17:59.949Z,9.80
2022-11-01T04:18:55.118Z,9.79
2022-11-01T04:19:50.401Z,9.78
2022-11-01T04:20:45.830Z,9.76
2022-11-01T04:21:41.068Z,9.74
2022-11-01T04:22:36.181Z,9.73
2022-11-01T04:23:31.385Z,9.71
2022-11-01T04:24:26.651Z,9.71
2022-11-01T04:25:22.084Z,9.72
2022-11-01T04:26:17.101Z,9.72
2022-11-01T04:27:12.402Z,9.70
2022-11-01T04:28:07.554Z,9.69
2022-11-01T04:29:02.820Z,9.69
2022-11-01T04:29:58.106Z,9.71
2022-11-01T04:30:53.300Z,9.71
2022-11-01T04:31:48.427Z,9.73
2022-11-01T04:32:43.838Z,9.75
2022-11-01T04:33:39.002Z,9.76
2022-11-01T04:34:34.198Z,9.78
2022-11-01T04:35:29.319Z,9.80
2022-11-01T04:36:24.514Z,9.91
2022-11-01T04:37:19.446Z,9.97
2022-11-01T04:38:14.500Z,9.99
2022-11-01T04:39:09.724Z,10.00
2022-11-01T04:40:04.897Z,10.00
2022-11-01T04:40:59.858Z,10.01
2022-11-01T04:41:54.920Z,10.08
2022-11-01T04:42:50.032Z,10.06
2022-11-01T04:43:45.128Z,10.05
2022-11-01T04:44:40.235Z,10.03
2022-11-01T04:45:35.449Z,10.05
2022-11-01T04:46:30.403Z,10.06
2022-11-01T04:47:25.478Z,10.07
2022-11-01T04:48:20.545Z,10.09
2022-11-01T04:49:15.624Z,10.10
2022-11-01T04:50:10.708Z,10.12
2022-11-01T04:51:05.937Z,10.12
2022-11-01T04:52:00.934Z,10.13
2022-11-01T04:52:56.412Z,10.14
2022-11-01T04:53:51.559Z,10.18
2022-11-01T04:54:46.800Z,10.23
2022-11-01T04:55:42.005Z,10.27
2022-11-01T04:56:37.414Z,10.31
2022-11-01T04:57:32.645Z,10.33
2022-11-01T04:58:27.878Z,10.34
2022-11-01T04:59:23.232Z,10.33
2022-11-01T05:00:18.354Z,10.32
2022-11-01T05:01:13.682Z,10.34
2022-11-01T05:02:08.972Z,10.31
2022-11-01T05:03:04.815Z,10.28
2022-11-01T05:03:59.476Z,10.29
2022-11-01T05:04:54.732Z,10.30
2022-11-01T05:05:49.969Z,10.29
2022-11-01T05:06:45.201Z,10.24
2022-11-01T05:07:40.441Z,10.25
2022-11-01T05:08:37.033Z,10.22
2022-11-01T05:09:32.574Z,10.20
2022-11-01T05:10:27.521Z,10.20
2022-11-01T05:11:22.864Z,10.22
2022-11-01T05:12:18.216Z,10.25
2022-11-01T05:13:13.327Z,10.25
2022-11-01T05:14:08.402Z,10.29
2022-11-01T05:15:03.843Z,10.33
2022-11-01T05:16:54.536Z,10.35
2022-11-01T05:17:48.537Z,10.40
2022-11-01T05:18:43.624Z,10.43
2022-11-01T05:19:38.697Z,10.43
2022-11-01T05:20:33.789Z,10.46
2022-11-01T05:21:28.960Z,10.50
2022-11-01T05:22:25.684Z,10.53
2022-11-01T05:23:21.049Z,10.54
2022-11-01T05:24:16.123Z,10.57
2022-11-01T05:25:11.339Z,10.59
2022-11-01T05:26:06.691Z,10.59
2022-11-01T05:27:01.928Z,10.62
2022-11-01T05:27:57.144Z,10.64
2022-11-01T05:28:52.389Z,10.68
2022-11-01T05:29:47.623Z,10.72
2022-11-01T05:30:43.000Z,10.74
2022-11-01T05:31:38.342Z,10.74
2022-11-01T05:32:33.443Z,10.73
2022-11-01T05:33:28.651Z,10.71
2022-11-01T05:34:23.926Z,10.67
2022-11-01T05:35:18.872Z,10.64
2022-11-01T05:36:13.940Z,10.66
2022-11-01T05:37:09.071Z,10.67
2022-11-01T05:38:07.150Z,10.68
2022-11-01T05:39:02.507Z,10.66
2022-11-01T05:39:57.735Z,10.65
2022-11-01T05:40:52.832Z,10.67
2022-11-01T05:41:47.900Z,10.68
2022-11-01T05:42:43.013Z,10.67
2022-11-01T05:43:38.115Z,10.67
2022-11-01T05:44:33.077Z,10.68
2022-11-01T05:45:28.191Z,10.69
2022-11-01T05:46:23.255Z,10.73
2022-11-01T05:47:18.376Z,10.76
2022-11-01T05:48:13.481Z,10.78
2022-11-01T05:49:08.431Z,10.79
2022-11-01T05:50:03.513Z,10.81
2022-11-01T05:50:58.519Z,10.81
2022-11-01T05:51:53.551Z,10.79
2022-11-01T05:52:48.663Z,10.76
2022-11-01T05:53:43.776Z,10.73
2022-11-01T05:54:38.782Z,10.71
2022-11-01T05:55:34.472Z,10.72
2022-11-01T05:56:29.803Z,10.72
2022-11-01T05:57:27.599Z,10.73
2022-11-01T05:58:21.788Z,10.71
2022-11-01T05:59:16.210Z,10.72
2022-11-01T06:00:12.173Z,10.75
2022-11-01T06:01:07.355Z,10.76
2022-11-01T06:02:03.063Z,10.77
2022-11-01T06:02:58.711Z,10.77
2022-11-01T06:03:53.917Z,10.80
2022-11-01T06:04:49.299Z,10.80
2022-11-01T06:05:45.561Z,10.80
2022-11-01T06:06:40.842Z,10.81
2022-11-01T06:07:36.565Z,10.82
2022-11-01T06:08:31.826Z,10.84
2022-11-01T06:09:27.377Z,10.82
2022-11-01T06:10:23.130Z,10.80
2022-11-01T06:11:18.528Z,10.79
2022-11-01T06:12:14.287Z,10.80
2022-11-01T06:13:09.600Z,10.82
2022-11-01T06:14:05.075Z,10.83
2022-11-01T06:15:00.732Z,10.82
2022-11-01T06:15:56.119Z,10.81
2022-11-01T06:16:51.470Z,10.81
2022-11-01T06:17:47.808Z,10.81
2022-11-01T06:18:43.236Z,10.75
2022-11-01T06:19:38.905Z,10.72
2022-11-01T06:20:34.285Z,10.72
2022-11-01T06:21:30.496Z,10.70
2022-11-01T06:22:25.655Z,10.72
2022-11-01T06:23:21.051Z,10.75
2022-11-01T06:24:16.852Z,10.80
2022-11-01T06:25:12.279Z,10.82
2022-11-01T06:26:07.661Z,10.83
2022-11-01T06:27:04.131Z,10.84
2022-11-01T06:27:58.976Z,10.85
2022-11-01T06:28:54.176Z,10.84
2022-11-01T06:29:50.785Z,10.89
2022-11-01T06:30:46.355Z,10.94
2022-11-01T06:31:42.136Z,10.99
2022-11-01T06:32:37.510Z,11.06
2022-11-01T06:33:33.063Z,11.11
2022-11-01T06:34:28.709Z,11.15
2022-11-01T06:35:24.189Z,11.20
2022-11-01T06:36:19.848Z,11.25
2022-11-01T06:37:15.258Z,11.28
2022-11-01T06:38:10.661Z,11.31
2022-11-01T06:39:06.464Z,11.34
2022-11-01T06:40:01.877Z,11.37
2022-11-01T06:40:57.515Z,11.40
2022-11-01T06:41:53.860Z,11.43
2022-11-01T06:42:49.365Z,11.45
2022-11-01T06:43:45.169Z,11.46
2022-11-01T06:44:40.528Z,11.48
2022-11-01T06:45:35.971Z,11.49
2022-11-01T06:46:31.655Z,11.50
2022-11-01T06:47:27.164Z,11.53
2022-11-01T06:48:22.860Z,11.55
2022-11-01T06:49:19.329Z,11.57
2022-11-01T06:50:13.694Z,11.59
2022-11-01T06:51:09.419Z,11.58
2022-11-01T06:52:04.867Z,11.60
2022-11-01T06:53:00.298Z,11.61
2022-11-01T06:53:55.713Z,11.63
2022-11-01T06:54:51.450Z,11.60
2022-11-01T06:55:47.094Z,11.59
2022-11-01T06:56:42.596Z,11.58
2022-11-01T06:57:38.235Z,11.58
2022-11-01T06:58:33.721Z,11.59
2022-11-01T06:59:29.561Z,11.62
2022-11-01T07:00:25.167Z,11.63
2022-11-01T07:01:20.634Z,11.63
2022-11-01T07:02:19.398Z,11.63
2022-11-01T07:03:11.917Z,11.62
2022-11-01T07:04:07.610Z,11.63
2022-11-01T07:05:03.687Z,11.65
2022-11-01T07:05:59.183Z,11.66
2022-11-01T07:06:55.374Z,11.69
2022-11-01T07:07:50.624Z,11.73
2022-11-01T07:08:46.130Z,11.76
2022-11-01T07:09:41.855Z,11.81
2022-11-01T07:10:37.340Z,11.88
2022-11-01T07:11:32.829Z,11.95
2022-11-01T07:12:28.656Z,11.99
2022-11-01T07:13:23.993Z,12.04
2022-11-01T07:14:19.061Z,12.10
2022-11-01T07:15:14.169Z,12.16
2022-11-01T07:16:09.236Z,12.16
2022-11-01T07:17:04.216Z,12.17
2022-11-01T07:17:59.487Z,12.18
2022-11-01T07:18:54.417Z,12.16
2022-11-01T07:19:49.519Z,12.28
2022-11-01T07:21:39.754Z,12.33
2022-11-01T07:22:34.719Z,12.37
2022-11-01T07:23:29.816Z,12.41
2022-11-01T07:24:24.897Z,12.40
2022-11-01T07:25:20.028Z,12.40
2022-11-01T07:26:15.197Z,12.43
2022-11-01T07:27:10.555Z,12.48
2022-11-01T07:28:06.421Z,12.51
2022-11-01T07:29:01.839Z,12.55
2022-11-01T07:29:57.319Z,12.57
2022-11-01T07:30:53.132Z,12.60
2022-11-01T07:31:48.621Z,12.62
2022-11-01T07:32:44.646Z,12.66
2022-11-01T07:33:39.916Z,12.62
2022-11-01T07:34:35.403Z,12.59
2022-11-01T07:35:31.390Z,12.55
2022-11-01T07:36:26.642Z,12.60
2022-11-01T07:37:22.343Z,12.62
2022-11-01T07:38:18.739Z,12.59
2022-11-01T07:39:13.897Z,12.62
2022-11-01T07:40:09.795Z,12.63
2022-11-01T07:41:05.188Z,12.58
2022-11-01T07:42:00.676Z,12.53
2022-11-01T07:42:56.477Z,12.50
2022-11-01T07:43:51.975Z,12.51
2022-11-01T07:44:47.890Z,12.49
2022-11-01T07:45:43.275Z,12.46
2022-11-01T07:46:38.759Z,12.46
2022-11-01T07:47:34.780Z,12.46
2022-11-01T07:48:30.042Z,12.46
2022-11-01T07:49:25.525Z,12.42
2022-11-01T07:50:21.869Z,12.42
2022-11-01T07:51:17.358Z,12.43
2022-11-01T07:52:13.272Z,12.43
2022-11-01T07:53:08.780Z,12.45
2022-11-01T07:54:04.279Z,12.47
2022-11-01T07:55:00.080Z,12.47
2022-11-01T07:55:55.494Z,12.48
2022-11-01T07:56:51.518Z,12.52
2022-11-01T07:57:46.902Z,12.54
2022-11-01T07:58:42.376Z,12.59
2022-11-01T07:59:38.360Z,12.63
2022-11-01T08:01:29.712Z,12.65
2022-11-01T08:02:25.689Z,12.64
2022-11-01T08:03:21.126Z,12.67
2022-11-01T08:04:17.064Z,12.70
2022-11-01T08:05:12.571Z,12.73
2022-11-01T08:06:08.160Z,12.77
2022-11-01T08:07:04.148Z,12.82
2022-11-01T08:07:59.536Z,12.84
2022-11-01T08:08:55.212Z,12.87
2022-11-01T08:09:50.585Z,12.92
2022-11-01T08:10:46.081Z,12.94
2022-11-01T08:11:41.835Z,12.97
2022-11-01T08:12:37.474Z,13.01
2022-11-01T08:13:32.816Z,13.05
2022-11-01T08:14:29.543Z,13.07
2022-11-01T08:15:25.024Z,13.15
2022-11-01T08:16:20.800Z,13.22
2022-11-01T08:17:16.321Z,13.35
2022-11-01T08:18:11.835Z,13.43
2022-11-01T08:19:07.634Z,13.51
2022-11-01T08:20:03.111Z,13.63
2022-11-01T08:20:58.869Z,13.75
2022-11-01T08:21:54.241Z,13.88
2022-11-01T08:22:49.746Z,14.00
2022-11-01T08:23:45.180Z,14.07
2022-11-01T08:24:40.572Z,14.16
2022-11-01T08:25:37.216Z,14.28
2022-11-01T08:26:32.380Z,14.38
2022-11-01T08:27:30.345Z,14.53
2022-11-01T08:28:23.761Z,14.61
2022-11-01T08:29:19.060Z,14.85
2022-11-01T08:30:14.871Z,15.13
2022-11-01T08:31:10.269Z,15.32
2022-11-01T08:32:05.970Z,15.37
2022-11-01T08:33:01.765Z,15.43
2022-11-01T08:33:57.106Z,15.46
2022-11-01T08:34:52.779Z,15.33
2022-11-01T08:35:50.684Z,15.40
2022-11-01T08:36:43.706Z,15.46
2022-11-01T08:37:38.721Z,15.38
2022-11-01T08:38:33.866Z,15.32
2022-11-01T08:39:29.064Z,15.25
2022-11-01T08:40:24.150Z,15.18
2022-11-01T08:41:19.155Z,15.14
2022-11-01T08:42:14.174Z,15.09
2022-11-01T08:43:09.264Z,15.12
2022-11-01T08:44:04.498Z,15.15
2022-11-01T08:44:59.372Z,15.06
2022-11-01T08:45:54.476Z,14.95
2022-11-01T08:46:50.182Z,14.97
2022-11-01T08:47:45.708Z,15.07
2022-11-01T08:48:41.385Z,15.15
2022-11-01T08:49:36.525Z,15.16
2022-11-01T08:50:33.255Z,15.01
2022-11-01T08:51:28.668Z,14.94
2022-11-01T08:52:24.295Z,14.96
2022-11-01T08:53:20.082Z,14.95
2022-11-01T08:54:14.733Z,14.95
2022-11-01T08:55:09.847Z,14.98
2022-11-01T08:56:04.933Z,14.99
2022-11-01T08:56:59.974Z,14.95
2022-11-01T08:57:55.192Z,14.91
2022-11-01T08:58:50.152Z,14.92
2022-11-01T08:59:45.254Z,14.84
2022-11-01T09:00:40.476Z,14.77
2022-11-01T09:01:38.612Z,14.75
2022-11-01T09:02:33.610Z,14.72
2022-11-01T09:03:28.724Z,14.72
2022-11-01T09:04:23.672Z,14.73
2022-11-01T09:05:18.778Z,14.72
2022-11-01T09:06:13.857Z,14.73
2022-11-01T09:07:08.938Z,14.73
2022-11-01T09:08:04.247Z,14.69
2022-11-01T09:08:59.019Z,14.69
2022-11-01T09:09:54.351Z,14.67
2022-11-01T09:10:51.167Z,14.63
2022-11-01T09:11:46.515Z,14.62
2022-11-01T09:12:42.433Z,14.56
2022-11-01T09:13:37.938Z,14.56
2022-11-01T09:14:33.454Z,14.57
2022-11-01T09:15:29.381Z,14.56
2022-11-01T09:16:24.864Z,14.52
2022-11-01T09:17:20.651Z,14.43
2022-11-01T09:18:16.125Z,14.41
2022-11-01T09:19:11.642Z,14.39
2022-11-01T09:20:07.566Z,14.40
2022-11-01T09:21:03.014Z,14.41
2022-11-01T09:21:58.512Z,14.37
2022-11-01T09:22:54.843Z,14.30
2022-11-01T09:23:50.352Z,14.29
2022-11-01T09:24:46.221Z,14.32
2022-11-01T09:25:41.732Z,14.36
2022-11-01T09:26:37.195Z,14.38
2022-11-01T09:27:32.999Z,14.40
2022-11-01T09:28:32.798Z,14.42
2022-11-01T09:29:25.590Z,14.45
2022-11-01T09:30:19.721Z,14.50
2022-11-01T09:31:20.908Z,14.55
2022-11-01T09:32:12.947Z,14.58
2022-11-01T09:33:07.525Z,14.63
2022-11-01T09:34:02.879Z,14.64
2022-11-01T09:34:59.362Z,14.65
2022-11-01T09:35:59.312Z,14.65
2022-11-01T09:36:50.768Z,14.65
2022-11-01T09:37:46.278Z,14.68
2022-11-01T09:38:41.816Z,14.73
2022-11-01T09:39:37.403Z,14.79
2022-11-01T09:40:32.907Z,14.78
2022-11-01T09:41:28.707Z,14.70
2022-11-01T09:42:24.103Z,14.72
2022-11-01T09:43:19.604Z,14.71
2022-11-01T09:44:15.428Z,14.66
2022-11-01T09:45:10.661Z,14.62
2022-11-01T09:46:06.163Z,14.70
2022-11-01T09:47:02.821Z,14.74
2022-11-01T09:47:57.881Z,14.77
2022-11-01T09:48:53.766Z,14.81
2022-11-01T09:49:49.236Z,14.83
2022-11-01T09:50:44.625Z,14.82
2022-11-01T09:51:40.527Z,14.82
2022-11-01T09:52:36.010Z,14.83
2022-11-01T09:53:31.965Z,14.84
2022-11-01T09:54:27.162Z,14.89
2022-11-01T09:55:22.653Z,14.88
2022-11-01T09:56:18.410Z,14.89
2022-11-01T09:57:13.846Z,14.86
2022-11-01T09:58:09.391Z,14.88
2022-11-01T09:59:05.599Z,14.91
2022-11-01T10:00:01.110Z,14.92
2022-11-01T10:00:56.682Z,14.96
2022-11-01T10:01:52.242Z,15.00
2022-11-01T10:02:47.832Z,15.04
2022-11-01T10:03:43.271Z,15.06
2022-11-01T10:04:38.994Z,15.09
2022-11-01T10:05:34.420Z,15.10
2022-11-01T10:06:29.851Z,15.02
2022-11-01T10:07:25.585Z,15.03
2022-11-01T10:08:21.019Z,15.02
2022-11-01T10:09:16.564Z,15.02
2022-11-01T10:10:12.840Z,14.98
2022-11-01T10:11:08.612Z,15.00
2022-11-01T10:12:04.027Z,15.01
2022-11-01T10:12:59.400Z,14.97
2022-11-01T10:13:54.946Z,14.98
2022-11-01T10:14:50.627Z,15.01
2022-11-01T10:15:46.120Z,15.00
2022-11-01T10:16:41.850Z,15.00
2022-11-01T10:17:37.274Z,14.96
2022-11-01T10:18:32.829Z,15.02
2022-11-01T10:19:28.134Z,15.06
2022-11-01T10:20:23.525Z,15.10
2022-11-01T10:21:19.073Z,15.13
2022-11-01T10:22:14.051Z,15.14
2022-11-01T10:23:09.065Z,15.12
2022-11-01T10:24:08.974Z,15.10
2022-11-01T10:25:04.312Z,15.16
2022-11-01T10:25:59.764Z,15.24
2022-11-01T10:26:55.306Z,15.32
2022-11-01T10:27:51.990Z,15.39
2022-11-01T10:28:47.471Z,15.52
2022-11-01T10:29:42.963Z,15.60
2022-11-01T10:30:38.473Z,15.73
2022-11-01T10:31:33.536Z,15.81
2022-11-01T10:32:28.647Z,15.99
2022-11-01T10:33:23.722Z,16.18
2022-11-01T10:34:18.794Z,16.37
2022-11-01T10:35:13.872Z,16.53
2022-11-01T10:36:08.942Z,16.67
2022-11-01T10:37:04.047Z,16.61
2022-11-01T10:38:11.113Z,16.61
2022-11-01T10:39:55.538Z,16.61
2022-11-01T10:40:45.328Z,16.67
2022-11-01T10:41:39.160Z,16.70
2022-11-01T10:42:34.216Z,16.71
2022-11-01T10:43:29.347Z,16.55
2022-11-01T10:44:24.388Z,16.51
2022-11-01T10:45:19.474Z,16.52
2022-11-01T10:46:19.573Z,16.54
2022-11-01T10:47:15.041Z,16.60
2022-11-01T10:48:10.509Z,16.67
2022-11-01T10:49:06.433Z,16.65
2022-11-01T10:50:06.493Z,16.63
2022-11-01T10:50:58.384Z,16.52
2022-11-01T10:51:53.106Z,16.40
2022-11-01T10:52:48.718Z,16.35
2022-11-01T10:53:44.219Z,16.43
2022-11-01T10:54:39.655Z,16.35
2022-11-01T10:55:36.114Z,16.23
2022-11-01T10:56:31.950Z,16.18
2022-11-01T10:57:27.563Z,16.15
2022-11-01T10:58:22.894Z,16.13
2022-11-01T10:59:18.386Z,16.15
2022-11-01T11:00:14.265Z,16.20
2022-11-01T11:01:10.006Z,16.21
2022-11-01T11:02:05.781Z,16.22
2022-11-01T11:03:01.093Z,16.20
2022-11-01T11:03:56.711Z,16.24
2022-11-01T11:04:52.872Z,16.29
2022-11-01T11:05:48.450Z,16.33
2022-11-01T11:06:43.787Z,16.32
2022-11-01T11:07:40.251Z,16.22
2022-11-01T11:08:35.729Z,16.05
2022-11-01T11:09:31.619Z,15.90
2022-11-01T11:10:27.133Z,15.81
2022-11-01T11:11:22.612Z,15.87
2022-11-01T11:12:18.423Z,15.93
2022-11-01T11:13:13.863Z,16.00
2022-11-01T11:14:09.759Z,16.10
2022-11-01T11:15:05.253Z,16.14
2022-11-01T11:16:00.675Z,16.12
2022-11-01T11:16:56.349Z,16.11
2022-11-01T11:17:51.953Z,16.17
2022-11-01T11:18:47.380Z,16.19
2022-11-01T11:19:43.713Z,16.11
2022-11-01T11:20:39.208Z,16.10
2022-11-01T11:21:35.088Z,16.11
2022-11-01T11:22:30.432Z,16.16
2022-11-01T11:23:25.996Z,16.19
2022-11-01T11:24:21.741Z,16.21
2022-11-01T11:25:17.061Z,16.23
2022-11-01T11:26:13.105Z,16.17
2022-11-01T11:27:08.345Z,16.11
2022-11-01T11:28:04.113Z,16.10
2022-11-01T11:28:59.616Z,16.13
2022-11-01T11:29:55.122Z,16.13
2022-11-01T11:30:50.674Z,16.16
2022-11-01T11:31:46.847Z,16.16
2022-11-01T11:32:42.328Z,16.18
2022-11-01T11:33:38.224Z,16.22
2022-11-01T11:34:33.674Z,16.11
2022-11-01T11:35:29.276Z,16.19
2022-11-01T11:36:24.219Z,16.27
2022-11-01T11:37:19.187Z,16.27
2022-11-01T11:38:14.286Z,16.23
2022-11-01T11:39:09.510Z,16.21
2022-11-01T11:40:04.553Z,16.22
2022-11-01T11:40:59.584Z,16.21
2022-11-01T11:41:54.888Z,16.20
2022-11-01T11:42:49.624Z,16.17
2022-11-01T11:43:44.632Z,16.11
2022-11-01T11:44:39.635Z,16.01
2022-11-01T11:45:34.678Z,15.93
2022-11-01T11:46:29.712Z,15.94
2022-11-01T11:47:25.067Z,15.86
2022-11-01T11:48:19.859Z,15.80
2022-11-01T11:49:15.460Z,15.81
2022-11-01T11:50:11.057Z,15.87
2022-11-01T11:51:06.821Z,15.94
2022-11-01T11:52:02.321Z,15.89
2022-11-01T11:52:58.084Z,15.87
2022-11-01T11:53:53.414Z,15.93
2022-11-01T11:54:48.913Z,15.90
2022-11-01T11:55:44.075Z,15.93
2022-11-01T11:56:39.098Z,15.98
2022-11-01T11:57:34.226Z,16.05
2022-11-01T11:58:29.635Z,16.10
2022-11-01T11:59:24.309Z,16.17
2022-11-01T12:00:24.846Z,16.11
2022-11-01T12:01:20.304Z,16.10
2022-11-01T12:02:16.100Z,16.14
2022-11-01T12:03:11.842Z,16.19
2022-11-01T12:04:07.337Z,16.22
2022-11-01T12:05:02.664Z,16.17
2022-11-01T12:05:59.255Z,16.18